Time;durP1;ratioP1;P1;durP2;ratioP2;P2;SDS_P1;SDS_P2;PMS_P1;PMS_P2;Temp;Humidity;BMP_temperature;BMP_pressure;BME280_temperature;BME280_humidity;BME280_pressure;Samples;Min_cycle;Max_cycle;Signal;HPM_P1;HPM_P2
2022/08/29 00:01:44;;;;;;;9.03;8.33;;;;;;;;;;5015213;28;20447;-64
2022/08/29 00:04:10;;;;;;;8.63;8.00;;;;;;;;;;5016244;28;20434;-63
2022/08/29 00:06:36;;;;;;;8.53;7.93;;;;;;;;;;5016044;28;20418;-64
2022/08/29 00:09:03;;;;;;;10.73;8.03;;;;;;;;;;5015971;28;20497;-63
2022/08/29 00:11:29;;;;;;;9.90;9.00;;;;;;;;;;5016045;28;20421;-64
2022/08/29 00:13:55;;;;;;;11.20;8.53;;;;;;;;;;5015816;28;20469;-64
2022/08/29 00:16:21;;;;;;;8.83;8.23;;;;;;;;;;5015858;28;20426;-64
2022/08/29 00:18:47;;;;;;;10.13;9.33;;;;;;;;;;5015823;28;20936;-68
2022/08/29 00:21:13;;;;;;;10.50;9.40;;;;;;;;;;5015690;28;20420;-63
2022/08/29 00:23:39;;;;;;;10.13;9.17;;;;;;;;;;5015696;28;20412;-63
2022/08/29 00:26:06;;;;;;;10.13;9.23;;;;;;;;;;5015668;28;20413;-63
2022/08/29 00:28:32;;;;;;;9.97;9.23;;;;;;;;;;5015616;28;20464;-63
2022/08/29 00:30:58;;;;;;;10.60;9.50;;;;;;;;;;5015551;28;20445;-63
2022/08/29 00:33:24;;;;;;;10.67;9.57;;;;;;;;;;5015715;28;20408;-63
2022/08/29 00:35:50;;;;;;;10.83;9.77;;;;;;;;;;5014793;28;20477;-64
2022/08/29 00:38:16;;;;;;;10.30;8.70;;;;;;;;;;5015427;28;20870;-65
2022/08/29 00:40:47;;;;;;;10.33;9.63;;;;;;;;;;5015321;28;20499;-64
2022/08/29 00:43:13;;;;;;;9.83;9.13;;;;;;;;;;5015299;28;20401;-63
2022/08/29 00:45:45;;;;;;;10.67;9.60;;;;;;;;;;5015315;28;20447;-63
2022/08/29 00:48:14;;;;;;;9.50;8.90;;;;;;;;;;5015230;28;20504;-64
2022/08/29 00:50:40;;;;;;;10.73;9.60;;;;;;;;;;5015407;28;20416;-64
2022/08/29 00:53:08;;;;;;;16.10;9.97;;;;;;;;;;5015085;28;20485;-64
2022/08/29 00:55:35;;;;;;;9.37;8.67;;;;;;;;;;5015077;28;20475;-64
2022/08/29 00:58:07;;;;;;;10.03;8.47;;;;;;;;;;5015055;28;20402;-64
2022/08/29 01:00:33;;;;;;;10.93;9.67;;;;;;;;;;5014971;28;20411;-63
2022/08/29 01:02:59;;;;;;;10.97;9.87;;;;;;;;;;5014981;28;20414;-63
2022/08/29 01:05:26;;;;;;;10.23;8.87;;;;;;;;;;5014974;28;20409;-63
2022/08/29 01:07:52;;;;;;;9.37;8.60;;;;;;;;;;5014902;28;20507;-64
2022/08/29 01:13:04;;;;;;;10.37;9.60;;;;;;;;;;5015049;28;20401;-63
2022/08/29 01:15:31;;;;;;;9.67;8.67;;;;;;;;;;5014659;28;21042;-65
2022/08/29 01:17:58;;;;;;;14.87;9.73;;;;;;;;;;5014977;28;20404;-63
2022/08/29 01:20:24;;;;;;;10.23;9.10;;;;;;;;;;5014606;28;20403;-63
2022/08/29 01:22:59;;;;;;;10.07;9.30;;;;;;;;;;5014587;28;20778;-63
2022/08/29 01:25:26;;;;;;;9.30;8.60;;;;;;;;;;5014593;28;20744;-64
2022/08/29 01:28:02;;;;;;;11.07;10.07;;;;;;;;;;5014518;28;20412;-64
2022/08/29 01:30:28;;;;;;;10.43;9.63;;;;;;;;;;5014767;28;20439;-64
2022/08/29 01:32:56;;;;;;;10.07;9.17;;;;;;;;;;5014510;28;20401;-63
2022/08/29 01:35:22;;;;;;;10.27;9.67;;;;;;;;;;5014301;28;20466;-63
2022/08/29 01:37:48;;;;;;;9.20;8.50;;;;;;;;;;5014328;28;20397;-63
2022/08/29 01:40:14;;;;;;;10.27;8.80;;;;;;;;;;5014312;28;20411;-63
2022/08/29 01:42:40;;;;;;;11.60;10.50;;;;;;;;;;5014326;28;20400;-64
2022/08/29 01:45:07;;;;;;;10.27;9.30;;;;;;;;;;5014232;28;20954;-65
2022/08/29 01:47:34;;;;;;;10.50;9.30;;;;;;;;;;5013503;28;20891;-64
2022/08/29 01:50:01;;;;;;;11.17;9.87;;;;;;;;;;5014027;28;20890;-64
2022/08/29 01:52:27;;;;;;;14.20;10.30;;;;;;;;;;5014045;28;20561;-64
2022/08/29 01:54:53;;;;;;;11.20;10.20;;;;;;;;;;5014034;28;20549;-63
2022/08/29 01:57:20;;;;;;;12.33;10.07;;;;;;;;;;5013966;28;20982;-64
2022/08/29 01:59:46;;;;;;;10.57;9.43;;;;;;;;;;5014007;28;20485;-64
2022/08/29 02:02:21;;;;;;;11.93;9.00;;;;;;;;;;5014242;28;20440;-63
2022/08/29 02:04:47;;;;;;;10.70;10.00;;;;;;;;;;5013934;28;20408;-64
2022/08/29 02:07:17;;;;;;;11.23;9.23;;;;;;;;;;5014119;28;20412;-64
2022/08/29 02:09:44;;;;;;;12.10;9.77;;;;;;;;;;5013884;28;20490;-64
2022/08/29 02:12:10;;;;;;;14.80;9.97;;;;;;;;;;5013770;28;20460;-65
2022/08/29 02:14:36;;;;;;;11.57;10.37;;;;;;;;;;5013826;28;20478;-64
2022/08/29 02:17:03;;;;;;;12.37;11.10;;;;;;;;;;5014043;28;20550;-64
2022/08/29 02:19:31;;;;;;;11.33;9.10;;;;;;;;;;5013773;28;20408;-64
2022/08/29 02:21:57;;;;;;;11.37;10.13;;;;;;;;;;5013746;28;20405;-64
2022/08/29 02:24:23;;;;;;;9.90;9.13;;;;;;;;;;5013959;28;20402;-64
2022/08/29 02:26:50;;;;;;;11.87;10.80;;;;;;;;;;5013701;28;20411;-63
2022/08/29 02:29:16;;;;;;;12.33;10.73;;;;;;;;;;5013790;28;20899;-63
2022/08/29 02:31:42;;;;;;;10.40;9.50;;;;;;;;;;5013681;28;20825;-63
2022/08/29 02:34:08;;;;;;;10.37;9.50;;;;;;;;;;5013587;28;20443;-64
2022/08/29 02:36:35;;;;;;;10.63;9.73;;;;;;;;;;5013599;28;20412;-63
2022/08/29 02:39:01;;;;;;;11.03;10.20;;;;;;;;;;5029072;28;20817;-64
2022/08/29 02:41:27;;;;;;;10.67;9.60;;;;;;;;;;5013577;28;20896;-64
2022/08/29 02:43:53;;;;;;;11.63;10.57;;;;;;;;;;5013714;28;20445;-64
2022/08/29 02:46:19;;;;;;;12.23;10.93;;;;;;;;;;5013474;28;20410;-66
2022/08/29 02:48:46;;;;;;;11.10;9.63;;;;;;;;;;5013487;28;20831;-64
2022/08/29 02:51:23;;;;;;;12.07;10.80;;;;;;;;;;5013339;28;20406;-64
2022/08/29 02:53:49;;;;;;;10.80;9.90;;;;;;;;;;5013448;28;20420;-64
2022/08/29 02:56:15;;;;;;;11.37;10.27;;;;;;;;;;5013419;28;20466;-64
2022/08/29 02:58:41;;;;;;;10.97;9.87;;;;;;;;;;5013439;28;20406;-65
2022/08/29 03:01:08;;;;;;;12.00;10.87;;;;;;;;;;5017310;28;20409;-67
2022/08/29 03:03:34;;;;;;;11.50;10.43;;;;;;;;;;5017184;28;20406;-63
2022/08/29 03:06:00;;;;;;;11.87;10.70;;;;;;;;;;5017137;28;20402;-63
2022/08/29 03:08:26;;;;;;;11.70;10.70;;;;;;;;;;5017216;28;20468;-64
2022/08/29 03:10:52;;;;;;;11.73;10.67;;;;;;;;;;5017089;28;20406;-63
2022/08/29 03:13:19;;;;;;;11.43;10.50;;;;;;;;;;5016999;28;20402;-63
2022/08/29 03:15:45;;;;;;;12.67;11.53;;;;;;;;;;5017143;28;20482;-64
2022/08/29 03:18:11;;;;;;;16.60;11.60;;;;;;;;;;5016966;28;20936;-64
2022/08/29 03:20:38;;;;;;;12.57;11.33;;;;;;;;;;5016935;28;20413;-64
2022/08/29 03:23:04;;;;;;;13.40;12.20;;;;;;;;;;5016841;28;20444;-63
2022/08/29 03:25:31;;;;;;;13.30;11.67;;;;;;;;;;5016984;28;20449;-63
2022/08/29 03:27:58;;;;;;;16.10;13.50;;;;;;;;;;5016803;28;20746;-64
2022/08/29 03:30:25;;;;;;;13.80;12.60;;;;;;;;;;5016707;28;20412;-64
2022/08/29 03:32:51;;;;;;;14.90;11.93;;;;;;;;;;5016659;28;20404;-63
2022/08/29 03:35:18;;;;;;;13.47;12.37;;;;;;;;;;5016583;28;20470;-64
2022/08/29 03:37:44;;;;;;;12.80;11.67;;;;;;;;;;5016659;28;20382;-64
2022/08/29 03:40:11;;;;;;;13.13;11.73;;;;;;;;;;5016616;28;20418;-65
2022/08/29 03:42:37;;;;;;;12.17;11.17;;;;;;;;;;5016540;28;20433;-64
2022/08/29 03:45:04;;;;;;;14.00;12.60;;;;;;;;;;5016482;28;20461;-64
2022/08/29 03:47:30;;;;;;;15.07;12.30;;;;;;;;;;5016384;28;20403;-64
2022/08/29 03:49:56;;;;;;;14.23;12.60;;;;;;;;;;5016388;28;20406;-67
2022/08/29 03:52:22;;;;;;;14.10;12.73;;;;;;;;;;5016226;28;21011;-64
2022/08/29 03:54:48;;;;;;;12.63;11.30;;;;;;;;;;5016243;28;20912;-63
2022/08/29 03:57:14;;;;;;;12.17;10.97;;;;;;;;;;5016467;28;20406;-64
2022/08/29 03:59:41;;;;;;;13.03;11.53;;;;;;;;;;5016302;28;20413;-64
2022/08/29 04:02:07;;;;;;;17.67;12.80;;;;;;;;;;5016175;28;20406;-64
2022/08/29 04:07:18;;;;;;;12.93;11.73;;;;;;;;;;5016018;28;20443;-64
2022/08/29 04:09:44;;;;;;;12.47;11.07;;;;;;;;;;5016073;28;20402;-64
2022/08/29 04:12:11;;;;;;;14.10;12.07;;;;;;;;;;5014824;28;20398;-64
2022/08/29 04:14:37;;;;;;;12.23;11.13;;;;;;;;;;5016142;28;20468;-65
2022/08/29 04:17:04;;;;;;;12.80;11.50;;;;;;;;;;5015841;28;20460;-64
2022/08/29 04:19:30;;;;;;;12.30;11.17;;;;;;;;;;5016092;28;20507;-65
2022/08/29 04:21:56;;;;;;;14.97;12.00;;;;;;;;;;5015927;28;20737;-64
2022/08/29 04:24:23;;;;;;;17.70;12.37;;;;;;;;;;5015826;28;20407;-68
2022/08/29 04:26:49;;;;;;;15.70;12.53;;;;;;;;;;5015759;28;20889;-75
2022/08/29 04:29:15;;;;;;;16.97;14.00;;;;;;;;;;5015703;28;20416;-76
2022/08/29 04:31:42;;;;;;;19.03;14.60;;;;;;;;;;5015618;28;20417;-69
2022/08/29 04:34:09;;;;;;;17.13;14.10;;;;;;;;;;5015737;28;20406;-74
2022/08/29 04:36:40;;;;;;;24.00;14.60;;;;;;;;;;5015600;28;20508;-74
2022/08/29 04:39:06;;;;;;;20.30;14.43;;;;;;;;;;5015451;28;20761;-75
2022/08/29 04:41:32;;;;;;;25.77;13.30;;;;;;;;;;5015374;28;20904;-72
2022/08/29 04:43:58;;;;;;;15.53;13.77;;;;;;;;;;5015357;28;20411;-75
2022/08/29 04:46:24;;;;;;;12.77;11.50;;;;;;;;;;5015350;28;20769;-64
2022/08/29 04:48:51;;;;;;;13.17;10.80;;;;;;;;;;5015530;28;20504;-74
2022/08/29 04:51:17;;;;;;;23.47;11.53;;;;;;;;;;5015158;28;20461;-73
2022/08/29 04:53:43;;;;;;;11.70;10.70;;;;;;;;;;5015172;28;20402;-70
2022/08/29 04:56:10;;;;;;;11.93;10.30;;;;;;;;;;5015085;28;20562;-77
2022/08/29 04:58:37;;;;;;;11.57;9.40;;;;;;;;;;5015145;28;20410;-65
2022/08/29 05:01:04;;;;;;;12.27;9.33;;;;;;;;;;5015023;28;20417;-73
2022/08/29 05:03:31;;;;;;;16.73;9.50;;;;;;;;;;5015042;28;20443;-77
2022/08/29 05:06:02;;;;;;;14.90;9.00;;;;;;;;;;5015036;28;20406;-75
2022/08/29 05:08:28;;;;;;;9.37;8.43;;;;;;;;;;5014835;28;20415;-68
2022/08/29 05:10:55;;;;;;;11.53;7.80;;;;;;;;;;5014908;28;20418;-64
2022/08/29 05:13:21;;;;;;;9.00;8.20;;;;;;;;;;5014805;28;20937;-74
2022/08/29 05:15:48;;;;;;;10.23;8.63;;;;;;;;;;5014660;28;20477;-76
2022/08/29 05:18:15;;;;;;;14.03;8.53;;;;;;;;;;5014782;28;20940;-76
2022/08/29 05:20:42;;;;;;;10.67;7.97;;;;;;;;;;5014634;28;20895;-73
2022/08/29 05:23:08;;;;;;;7.90;7.20;;;;;;;;;;5014367;28;20409;-66
2022/08/29 05:25:34;;;;;;;9.30;7.47;;;;;;;;;;5014635;28;20440;-76
2022/08/29 05:28:00;;;;;;;11.60;7.60;;;;;;;;;;5014515;28;20499;-76
2022/08/29 05:30:27;;;;;;;12.90;8.63;;;;;;;;;;5014577;28;20907;-76
2022/08/29 05:32:56;;;;;;;8.23;7.57;;;;;;;;;;5014395;28;20420;-75
2022/08/29 05:35:22;;;;;;;7.90;7.20;;;;;;;;;;5014358;28;20835;-74
2022/08/29 05:37:48;;;;;;;9.90;7.20;;;;;;;;;;5014470;28;20404;-76
2022/08/29 05:40:14;;;;;;;15.33;8.20;;;;;;;;;;5014624;28;20419;-75
2022/08/29 05:42:41;;;;;;;10.53;6.90;;;;;;;;;;5014533;28;20855;-75
2022/08/29 05:45:08;;;;;;;8.00;6.87;;;;;;;;;;5014588;28;20410;-76
2022/08/29 05:47:34;;;;;;;9.87;7.70;;;;;;;;;;5014230;28;20492;-74
2022/08/29 05:50:00;;;;;;;17.07;7.43;;;;;;;;;;5014278;28;20905;-76
2022/08/29 05:52:26;;;;;;;9.50;7.43;;;;;;;;;;5029119;28;20860;-76
2022/08/29 05:54:52;;;;;;;9.40;7.57;;;;;;;;;;5014180;28;20556;-77
2022/08/29 05:57:20;;;;;;;7.80;7.00;;;;;;;;;;5014173;28;20456;-72
2022/08/29 05:59:46;;;;;;;13.33;7.37;;;;;;;;;;5013960;28;20394;-71
2022/08/29 06:02:13;;;;;;;7.77;6.97;;;;;;;;;;5014069;28;20402;-77
2022/08/29 06:04:40;;;;;;;7.10;6.50;;;;;;;;;;5014009;28;20889;-71
2022/08/29 06:07:07;;;;;;;8.67;6.70;;;;;;;;;;5014170;28;20409;-69
2022/08/29 06:09:33;;;;;;;13.00;7.43;;;;;;;;;;5013905;28;20491;-74
2022/08/29 06:11:59;;;;;;;12.30;6.40;;;;;;;;;;5013849;28;20408;-79
2022/08/29 06:14:25;;;;;;;7.60;6.30;;;;;;;;;;5028955;28;20452;-78
2022/08/29 06:16:52;;;;;;;10.30;6.90;;;;;;;;;;5013926;28;20544;-68
2022/08/29 06:19:18;;;;;;;7.20;6.60;;;;;;;;;;5013775;28;20405;-75
2022/08/29 06:21:44;;;;;;;7.30;6.70;;;;;;;;;;5013747;28;20418;-76
2022/08/29 06:24:10;;;;;;;7.27;6.57;;;;;;;;;;5013711;28;20402;-81
2022/08/29 06:26:36;;;;;;;10.30;6.20;;;;;;;;;;5013826;28;20421;-74
2022/08/29 06:29:08;;;;;;;9.17;6.23;;;;;;;;;;5013634;28;20415;-64
2022/08/29 06:31:34;;;;;;;9.33;6.90;;;;;;;;;;5013865;28;20489;-71
2022/08/29 06:34:01;;;;;;;14.90;6.73;;;;;;;;;;5014810;28;20841;-76
2022/08/29 06:36:28;;;;;;;11.03;7.33;;;;;;;;;;5017707;28;20426;-74
2022/08/29 06:38:57;;;;;;;10.77;6.27;;;;;;;;;;5017741;28;20402;-79
2022/08/29 06:41:24;;;;;;;8.83;6.70;;;;;;;;;;5032969;28;20423;-80
2022/08/29 06:43:50;;;;;;;10.03;6.20;;;;;;;;;;5017830;28;20463;-77
2022/08/29 06:46:22;;;;;;;10.00;6.80;;;;;;;;;;5017640;28;20419;-77
2022/08/29 06:48:48;;;;;;;6.73;6.13;;;;;;;;;;5017499;28;20442;-77
2022/08/29 06:51:14;;;;;;;12.50;6.63;;;;;;;;;;5017336;28;20471;-75
2022/08/29 06:53:40;;;;;;;11.60;6.73;;;;;;;;;;5017447;28;20956;-77
2022/08/29 06:56:07;;;;;;;12.60;6.33;;;;;;;;;;5017384;28;20472;-77
2022/08/29 06:58:33;;;;;;;10.90;6.57;;;;;;;;;;5017385;28;20407;-71
2022/08/29 07:01:04;;;;;;;7.23;6.53;;;;;;;;;;5017284;28;20421;-77
2022/08/29 07:03:30;;;;;;;8.73;6.90;;;;;;;;;;5017304;28;20513;-73
2022/08/29 07:05:56;;;;;;;13.10;7.67;;;;;;;;;;5017193;28;20856;-77
2022/08/29 07:08:22;;;;;;;8.37;6.67;;;;;;;;;;5017148;28;20495;-66
2022/08/29 07:10:48;;;;;;;7.57;6.10;;;;;;;;;;5017088;28;20412;-76
2022/08/29 07:13:14;;;;;;;7.30;5.90;;;;;;;;;;5016986;28;20403;-74
2022/08/29 07:15:41;;;;;;;12.93;6.70;;;;;;;;;;5016955;28;20992;-74
2022/08/29 07:18:07;;;;;;;8.63;6.03;;;;;;;;;;5016977;28;20407;-78
2022/08/29 07:20:33;;;;;;;9.57;8.27;;;;;;;;;;5017228;28;20411;-76
2022/08/29 07:22:59;;;;;;;9.63;6.80;;;;;;;;;;5017150;28;20432;-69
2022/08/29 07:25:26;;;;;;;11.13;7.33;;;;;;;;;;5016589;28;20434;-76
2022/08/29 07:27:52;;;;;;;8.90;6.27;;;;;;;;;;5016719;28;20436;-72
2022/08/29 07:30:19;;;;;;;11.67;7.47;;;;;;;;;;5016673;28;20417;-71
2022/08/29 07:32:45;;;;;;;13.60;7.27;;;;;;;;;;5016695;28;20507;-72
2022/08/29 07:35:12;;;;;;;6.87;6.03;;;;;;;;;;5016587;28;20496;-71
2022/08/29 07:37:39;;;;;;;11.07;6.93;;;;;;;;;;5016613;28;20499;-72
2022/08/29 07:40:05;;;;;;;11.30;6.30;;;;;;;;;;5016552;28;20443;-67
2022/08/29 07:42:32;;;;;;;12.50;6.53;;;;;;;;;;5031755;28;20500;-71
2022/08/29 07:44:58;;;;;;;12.10;6.60;;;;;;;;;;5016451;28;20496;-69
2022/08/29 07:47:25;;;;;;;8.77;6.53;;;;;;;;;;5016383;28;20436;-70
2022/08/29 07:49:52;;;;;;;7.60;6.90;;;;;;;;;;5016401;28;20973;-69
2022/08/29 07:52:18;;;;;;;9.90;7.00;;;;;;;;;;5016214;28;20961;-70
2022/08/29 07:54:44;;;;;;;8.23;7.57;;;;;;;;;;5016177;28;20471;-69
2022/08/29 07:57:10;;;;;;;10.70;7.00;;;;;;;;;;5016212;28;20410;-71
2022/08/29 07:59:36;;;;;;;8.20;6.80;;;;;;;;;;5016431;28;20399;-70
2022/08/29 08:02:02;;;;;;;8.87;7.23;;;;;;;;;;5016127;28;20413;-69
2022/08/29 08:04:28;;;;;;;16.30;8.17;;;;;;;;;;5016177;28;20454;-72
2022/08/29 08:06:54;;;;;;;10.10;7.80;;;;;;;;;;5016019;28;20908;-71
2022/08/29 08:09:20;;;;;;;9.17;7.57;;;;;;;;;;5016003;28;20409;-72
2022/08/29 08:11:46;;;;;;;10.67;7.23;;;;;;;;;;5015987;28;20515;-67
2022/08/29 08:14:13;;;;;;;14.53;7.37;;;;;;;;;;5015775;28;20450;-73
2022/08/29 08:16:39;;;;;;;8.33;7.13;;;;;;;;;;5015902;28;20419;-69
2022/08/29 08:19:05;;;;;;;13.90;7.30;;;;;;;;;;5015735;28;20494;-66
2022/08/29 08:21:31;;;;;;;14.30;6.80;;;;;;;;;;5015637;28;20470;-71
2022/08/29 08:23:57;;;;;;;12.03;6.70;;;;;;;;;;5015855;28;20399;-72
2022/08/29 08:26:23;;;;;;;9.97;7.40;;;;;;;;;;5030979;28;20427;-75
2022/08/29 08:28:49;;;;;;;7.63;6.83;;;;;;;;;;5015763;28;20507;-65
2022/08/29 08:31:16;;;;;;;7.37;6.77;;;;;;;;;;5015753;28;20420;-71
2022/08/29 08:33:43;;;;;;;7.73;7.00;;;;;;;;;;5030709;28;20791;-65
2022/08/29 08:36:15;;;;;;;6.73;6.10;;;;;;;;;;5015643;28;20472;-78
2022/08/29 08:38:41;;;;;;;10.23;6.93;;;;;;;;;;5015399;28;20443;-66
2022/08/29 08:41:10;;;;;;;15.83;6.13;;;;;;;;;;5015451;28;20961;-72
2022/08/29 08:43:48;;;;;;;6.93;6.23;;;;;;;;;;5015247;28;20914;-65
2022/08/29 08:46:14;;;;;;;7.00;6.50;;;;;;;;;;5015290;28;20407;-70
2022/08/29 08:48:40;;;;;;;7.40;6.80;;;;;;;;;;5015244;28;20412;-68
2022/08/29 08:51:13;;;;;;;11.27;6.83;;;;;;;;;;5015080;28;20432;-71
2022/08/29 08:53:48;;;;;;;7.63;6.60;;;;;;;;;;5015050;28;20510;-69
2022/08/29 08:56:40;;;;;;;6.60;5.90;;;;;;;;;;5015072;28;20863;-70
2022/08/29 08:59:19;;;;;;;5.93;5.40;;;;;;;;;;5015594;28;20427;-64
2022/08/29 09:01:54;;;;;;;9.47;6.70;;;;;;;;;;5015081;28;20407;-66
2022/08/29 09:04:39;;;;;;;6.87;6.20;;;;;;;;;;5014994;28;20484;-67
2022/08/29 09:07:14;;;;;;;6.63;5.80;;;;;;;;;;5015011;28;20439;-67
2022/08/29 09:09:40;;;;;;;8.50;5.90;;;;;;;;;;5014969;28;20692;-64
2022/08/29 09:12:12;;;;;;;13.73;5.90;;;;;;;;;;5015043;28;20470;-68
2022/08/29 09:14:45;;;;;;;8.00;6.10;;;;;;;;;;5014709;28;20463;-70
2022/08/29 09:17:19;;;;;;;6.60;6.00;;;;;;;;;;5014731;28;20409;-64
2022/08/29 09:19:47;;;;;;;6.57;5.97;;;;;;;;;;5014663;28;20742;-64
2022/08/29 09:22:15;;;;;;;7.37;6.70;;;;;;;;;;5014595;28;20408;-72
2022/08/29 09:24:47;;;;;;;10.83;6.60;;;;;;;;;;5014684;28;20758;-72
2022/08/29 09:27:21;;;;;;;6.70;6.20;;;;;;;;;;5014810;28;20404;-63
2022/08/29 09:29:48;;;;;;;7.07;6.10;;;;;;;;;;5014514;28;20405;-73
2022/08/29 09:32:14;;;;;;;7.20;6.10;;;;;;;;;;5014729;28;20405;-64
2022/08/29 09:34:45;;;;;;;6.93;6.10;;;;;;;;;;5014641;28;20473;-71
2022/08/29 09:37:25;;;;;;;7.57;6.00;;;;;;;;;;5014691;28;20411;-68
2022/08/29 09:39:55;;;;;;;12.20;5.70;;;;;;;;;;5014585;28;20470;-72
2022/08/29 09:42:22;;;;;;;7.30;6.03;;;;;;;;;;5014276;28;20400;-67
2022/08/29 09:45:11;;;;;;;10.33;5.40;;;;;;;;;;5014279;28;20407;-71
2022/08/29 09:47:37;;;;;;;8.70;6.67;;;;;;;;;;5016237;28;20438;-73
2022/08/29 09:50:09;;;;;;;7.53;6.03;;;;;;;;;;5014441;28;20414;-64
2022/08/29 09:52:36;;;;;;;6.57;6.07;;;;;;;;;;5014078;28;20563;-72
2022/08/29 09:55:17;;;;;;;6.80;6.10;;;;;;;;;;5014078;28;20466;-70
2022/08/29 09:57:48;;;;;;;7.30;6.57;;;;;;;;;;5014071;28;20869;-74
2022/08/29 10:00:16;;;;;;;6.23;5.73;;;;;;;;;;5014145;28;20470;-73
2022/08/29 10:02:42;;;;;;;6.57;5.80;;;;;;;;;;5014004;28;20462;-67
2022/08/29 10:05:11;;;;;;;6.10;5.70;;;;;;;;;;5014047;28;20416;-79
2022/08/29 10:07:47;;;;;;;5.93;5.43;;;;;;;;;;5013998;28;20207;-83
2022/08/29 10:10:13;;;;;;;6.53;5.73;;;;;;;;;;5013167;28;20802;-83
2022/08/29 10:12:49;;;;;;;5.80;5.50;;;;;;;;;;5014044;28;20547;-79
2022/08/29 10:15:23;;;;;;;9.00;5.83;;;;;;;;;;5014630;28;20552;-81
2022/08/29 10:18:41;;;;;;;10.73;5.70;;;;;;;;;;5013766;28;20400;-73
2022/08/29 10:20:44;;;;;;;6.67;5.97;;;;;;;;;;5020127;28;20435;-66
2022/08/29 10:23:18;;;;;;;6.73;6.00;;;;;;;;;;5013743;28;20408;-76
2022/08/29 10:25:44;;;;;;;7.53;5.40;;;;;;;;;;5013744;28;20399;-73
2022/08/29 10:28:47;;;;;;;6.70;5.37;;;;;;;;;;5013693;28;20413;-69
2022/08/29 10:31:17;;;;;;;6.30;5.70;;;;;;;;;;5031248;28;20506;-67
2022/08/29 10:33:46;;;;;;;6.50;5.93;;;;;;;;;;5016471;28;20454;-66
2022/08/29 10:36:15;;;;;;;6.07;5.57;;;;;;;;;;5013566;28;20567;-65
2022/08/29 10:38:51;;;;;;;6.13;5.53;;;;;;;;;;5013619;28;20412;-70
2022/08/29 10:41:17;;;;;;;5.47;4.97;;;;;;;;;;5013607;28;20398;-68
2022/08/29 10:43:50;;;;;;;6.10;5.70;;;;;;;;;;5013610;28;20961;-66
2022/08/29 10:46:31;;;;;;;5.50;5.10;;;;;;;;;;5013484;28;20537;-76
2022/08/29 10:49:03;;;;;;;5.20;4.80;;;;;;;;;;5013556;28;20412;-72
2022/08/29 10:51:37;;;;;;;6.43;5.07;;;;;;;;;;5013527;28;20460;-70
2022/08/29 10:54:21;;;;;;;5.50;5.10;;;;;;;;;;5013502;28;20404;-70
2022/08/29 10:56:48;;;;;;;7.03;4.83;;;;;;;;;;5013431;28;20474;-68
2022/08/29 10:59:33;;;;;;;6.10;5.37;;;;;;;;;;5013405;28;20389;-75
2022/08/29 11:02:11;;;;;;;5.60;4.83;;;;;;;;;;5013437;28;20506;-66
2022/08/29 11:04:40;;;;;;;5.90;5.40;;;;;;;;;;5013367;28;20401;-64
2022/08/29 11:07:12;;;;;;;5.83;5.43;;;;;;;;;;5013432;28;20409;-64
2022/08/29 11:09:46;;;;;;;6.63;6.10;;;;;;;;;;5013367;28;20416;-65
2022/08/29 11:12:11;;;;;;;5.87;4.90;;;;;;;;;;5013328;28;20390;-64
2022/08/29 11:14:40;;;;;;;5.53;5.10;;;;;;;;;;5013151;28;20471;-77
2022/08/29 11:17:07;;;;;;;6.20;5.70;;;;;;;;;;5013229;28;20417;-63
2022/08/29 11:19:43;;;;;;;8.23;5.47;;;;;;;;;;5013310;28;20409;-63
2022/08/29 11:22:27;;;;;;;5.43;5.07;;;;;;;;;;5016950;28;20900;-63
2022/08/29 11:24:59;;;;;;;5.57;5.27;;;;;;;;;;5016917;28;20862;-64
2022/08/29 11:27:40;;;;;;;7.13;5.30;;;;;;;;;;5016931;28;20409;-62
2022/08/29 11:30:09;;;;;;;6.50;5.87;;;;;;;;;;5016643;28;20884;-62
2022/08/29 11:32:41;;;;;;;5.57;5.17;;;;;;;;;;5016651;28;20892;-63
2022/08/29 11:35:25;;;;;;;7.97;5.33;;;;;;;;;;5016532;28;20459;-62
2022/08/29 11:37:54;;;;;;;5.50;5.20;;;;;;;;;;5016588;28;20507;-62
2022/08/29 11:40:30;;;;;;;5.13;4.90;;;;;;;;;;5016541;28;20401;-64
2022/08/29 11:42:59;;;;;;;7.87;5.27;;;;;;;;;;5016665;28;20463;-65
2022/08/29 11:45:27;;;;;;;5.37;4.97;;;;;;;;;;5016435;28;20408;-63
2022/08/29 11:47:53;;;;;;;5.13;4.73;;;;;;;;;;5016384;28;20405;-64
2022/08/29 11:50:22;;;;;;;7.63;5.30;;;;;;;;;;5016718;28;20393;-63
2022/08/29 11:52:56;;;;;;;6.83;6.07;;;;;;;;;;5016060;28;20500;-63
2022/08/29 11:55:27;;;;;;;5.63;5.20;;;;;;;;;;5016039;28;20515;-63
2022/08/29 11:57:55;;;;;;;5.57;5.27;;;;;;;;;;5016091;28;20406;-63
2022/08/29 12:00:33;;;;;;;6.00;5.50;;;;;;;;;;5016177;28;20405;-63
2022/08/29 12:02:59;;;;;;;5.50;5.00;;;;;;;;;;5016417;28;20393;-62
2022/08/29 12:05:28;;;;;;;6.00;5.47;;;;;;;;;;5016124;28;20496;-69
2022/08/29 12:08:02;;;;;;;5.77;5.17;;;;;;;;;;5015989;28;20873;-63
2022/08/29 12:10:30;;;;;;;9.23;5.83;;;;;;;;;;5016117;28;20776;-63
2022/08/29 12:13:01;;;;;;;7.47;5.37;;;;;;;;;;5015979;28;20420;-63
2022/08/29 12:15:27;;;;;;;5.80;4.97;;;;;;;;;;5015846;28;20496;-63
2022/08/29 12:17:53;;;;;;;6.23;5.73;;;;;;;;;;5015809;28;20441;-62
2022/08/29 12:20:34;;;;;;;5.43;5.13;;;;;;;;;;5015865;28;20163;-65
2022/08/29 12:23:02;;;;;;;6.00;5.60;;;;;;;;;;5015823;28;20437;-62
2022/08/29 12:25:31;;;;;;;5.90;5.30;;;;;;;;;;5015734;28;20390;-61
2022/08/29 12:28:00;;;;;;;6.20;5.70;;;;;;;;;;5015808;28;20902;-63
2022/08/29 12:30:27;;;;;;;6.37;5.57;;;;;;;;;;5015591;28;20389;-63
2022/08/29 12:32:53;;;;;;;5.13;4.83;;;;;;;;;;5014696;28;20405;-63
2022/08/29 12:35:28;;;;;;;5.37;4.97;;;;;;;;;;5015434;28;20479;-62
2022/08/29 12:38:01;;;;;;;5.47;4.90;;;;;;;;;;5015454;28;20165;-62
2022/08/29 12:40:38;;;;;;;6.73;5.20;;;;;;;;;;5015447;28;20393;-62
2022/08/29 12:43:23;;;;;;;5.83;5.23;;;;;;;;;;5015348;28;20495;-63
2022/08/29 12:45:49;;;;;;;5.40;5.00;;;;;;;;;;5015358;28;20401;-62
2022/08/29 12:48:18;;;;;;;6.73;5.80;;;;;;;;;;5015588;28;20737;-64
2022/08/29 12:50:47;;;;;;;5.70;5.40;;;;;;;;;;5015217;28;20959;-63
2022/08/29 12:53:15;;;;;;;5.13;4.73;;;;;;;;;;5015074;28;20530;-62
2022/08/29 12:55:43;;;;;;;5.87;5.37;;;;;;;;;;5015129;28;20838;-63
2022/08/29 12:58:10;;;;;;;5.57;5.07;;;;;;;;;;5015114;28;20483;-63
2022/08/29 13:00:36;;;;;;;9.70;5.77;;;;;;;;;;5015015;28;20405;-63
2022/08/29 13:03:02;;;;;;;7.03;5.30;;;;;;;;;;5030195;28;20465;-64
2022/08/29 13:05:30;;;;;;;5.53;5.00;;;;;;;;;;5015035;28;20498;-63
2022/08/29 13:08:00;;;;;;;6.20;5.60;;;;;;;;;;5014937;28;20174;-62
2022/08/29 13:10:26;;;;;;;5.40;5.00;;;;;;;;;;5014967;28;20496;-63
2022/08/29 13:12:55;;;;;;;5.50;5.03;;;;;;;;;;5014789;28;20397;-62
2022/08/29 13:15:28;;;;;;;5.83;5.33;;;;;;;;;;5014801;28;20563;-63
2022/08/29 13:17:55;;;;;;;10.17;5.17;;;;;;;;;;5014965;28;20444;-63
2022/08/29 13:20:39;;;;;;;5.73;5.27;;;;;;;;;;5014678;28;20413;-63
2022/08/29 13:23:11;;;;;;;5.90;5.40;;;;;;;;;;5014607;28;20795;-63
2022/08/29 13:25:43;;;;;;;5.80;5.00;;;;;;;;;;5014758;28;20406;-63
2022/08/29 13:28:18;;;;;;;5.27;4.97;;;;;;;;;;5014547;28;20405;-62
2022/08/29 13:30:44;;;;;;;5.33;5.00;;;;;;;;;;5014594;28;20408;-62
2022/08/29 13:33:24;;;;;;;5.20;5.00;;;;;;;;;;5014489;28;20397;-63
2022/08/29 13:35:50;;;;;;;6.20;5.60;;;;;;;;;;5014428;28;20484;-62
2022/08/29 13:38:22;;;;;;;8.37;5.50;;;;;;;;;;5014650;28;20429;-63
2022/08/29 13:40:53;;;;;;;5.57;5.27;;;;;;;;;;5014624;28;20397;-63
2022/08/29 13:43:45;;;;;;;5.13;4.93;;;;;;;;;;5014191;28;20739;-63
2022/08/29 13:46:29;;;;;;;7.80;5.37;;;;;;;;;;5014955;28;20448;-62
2022/08/29 13:49:01;;;;;;;9.40;4.60;;;;;;;;;;5014169;28;20452;-63
2022/08/29 13:51:27;;;;;;;4.97;4.53;;;;;;;;;;5014248;28;20927;-62
2022/08/29 13:53:54;;;;;;;5.20;4.90;;;;;;;;;;5014505;28;20440;-63
2022/08/29 13:56:27;;;;;;;5.70;5.40;;;;;;;;;;5014166;28;20231;-63
2022/08/29 13:58:53;;;;;;;5.50;5.20;;;;;;;;;;5014220;28;20492;-63
2022/08/29 14:01:21;;;;;;;6.80;5.43;;;;;;;;;;5014091;28;20437;-63
2022/08/29 14:03:48;;;;;;;5.13;4.50;;;;;;;;;;5014051;28;20401;-62
2022/08/29 14:06:15;;;;;;;15.43;5.80;;;;;;;;;;5013994;28;20413;-63
2022/08/29 14:08:41;;;;;;;5.13;4.83;;;;;;;;;;5013797;28;20432;-63
2022/08/29 14:11:07;;;;;;;5.60;5.23;;;;;;;;;;5013921;28;20892;-63
2022/08/29 14:13:33;;;;;;;5.43;4.97;;;;;;;;;;5013782;28;20411;-62
2022/08/29 14:15:59;;;;;;;5.50;5.00;;;;;;;;;;5013993;28;20537;-63
2022/08/29 14:18:25;;;;;;;4.90;4.60;;;;;;;;;;5013684;28;20408;-63
2022/08/29 14:20:51;;;;;;;5.20;4.70;;;;;;;;;;5014114;28;20409;-63
2022/08/29 14:23:17;;;;;;;5.83;5.53;;;;;;;;;;5013910;28;20496;-63
2022/08/29 14:25:43;;;;;;;7.00;5.30;;;;;;;;;;5013600;28;20854;-63
2022/08/29 14:28:09;;;;;;;5.13;4.80;;;;;;;;;;5013684;28;20405;-63
2022/08/29 14:30:35;;;;;;;5.30;4.80;;;;;;;;;;5013565;28;20174;-63
2022/08/29 14:33:00;;;;;;;5.30;4.87;;;;;;;;;;5013962;28;20471;-62
2022/08/29 14:35:26;;;;;;;5.83;5.40;;;;;;;;;;5013463;28;20664;-64
2022/08/29 14:37:53;;;;;;;5.40;5.00;;;;;;;;;;5013637;28;20539;-63
2022/08/29 14:40:18;;;;;;;5.60;5.10;;;;;;;;;;5013705;28;20408;-63
2022/08/29 14:42:44;;;;;;;13.33;4.60;;;;;;;;;;5013586;28;20413;-63
2022/08/29 14:45:11;;;;;;;6.47;5.83;;;;;;;;;;5013740;28;20190;-63
2022/08/29 14:47:37;;;;;;;5.13;4.93;;;;;;;;;;5013532;28;20397;-63
2022/08/29 14:50:04;;;;;;;5.00;4.63;;;;;;;;;;5013552;28;20453;-63